Rockwell, NC (28138)

01:55 EDT le 30 Mars 2015 (GMT -0400)
RockGrove | | Change Station
CLOSE
Current Station
Stations météorologiques personnelles
Location: Salisbury, NC
Altitude: 856 ft
Stations météo à proximité

Alt. 856 ft 35.55 °N, 80.48 °W | Updated 5 minutes ago

Ciel dégagé
Ciel dégagé
40.4 ° F
Paraît 38 ° F
N
4.0
Vent Variable Vent de SO
Gusts 5.0 mph

Aujourd'hui
Haut(e) -- | Bas -- ° F
--% Risque de précip.
Hier
Haut(e) -- | Bas -- ° F
Precip. -- pouce
7:11 AM 7:41 PM
Lune gibbeuse croissante, 77% visible
Pression 30.15 pouce
Visibilité 10.0 Miles terrestres
Nuages Ciel dégagé
Refroidissement éolien 38 ° F
Point de rosée 19 ° F
Humidité 42%
Précipitations 0.00 pouce
Profondeur de la couche neigeuse Non disponible.
UV 0 sur 12
Pollen 8.10 sur 12
Qualité de l'air Non disponible.
Flu Activity Non disponible.
METAR KRUQ 300535Z AUTO 17006KT 10SM CLR 05/M08 A3015 RMK AO2 T00531082

More Conditions Fewer Conditions

Pression 30.15 pouce
Visibilité 10.0 Miles terrestres
Nuages Ciel dégagé
Refroidissement éolien 38 ° F
Point de rosée 19 ° F
Humidité 42%
Précipitations 0.00 pouce
Profondeur de la couche neigeuse Non disponible.
UV 0 sur 12
Pollen 8.10 sur 12
Qualité de l'air Non disponible.
Flu Activity Non disponible.
METAR KRUQ 300535Z AUTO 17006KT 10SM CLR 05/M08 A3015 RMK AO2 T00531082

More Conditions Fewer Conditions

10-Day Weather Forecast

Almanac

Astronomie

Mar. 30, 2015 Lever Coucher
Temps réel
Crépuscule civil
Crépuscule nautique
Crépuscule astronomique
Lune
Durée de lumière visible
Longueur du jour
Tomorrow will be .
, % of the Moon is Illuminated

Extrêmes aujourd'hui

State Highs State Lows

Community

WunderPhotos

Upload Photos

1,809,437 Photos téléchargées !

WunderBlogs® & News

Nearby

Qualité de l'air

  Qualité de l'air Indice de la qualité de l'air Polluant
Not available.

Épaisseur de neige

Station Depth Altitude

Activité sismique

Ville Distance Mag. Time & Date
Minimum magnitude displayed is 2.5.

Températures des eaux côtières

Lieu Température

Stations

Stations météo à proximité

Emplacement de la station Température Refroidissement éolien Point de rosée Humidité Vent Precip. Alt. Mise à jour Type